sensor_id;sensor_type;location;lat;lon;timestamp;temperature;humidity
20700;DHT22;10511;51.232;9.420;2024-03-22T00:01:58;8.10;99.90
20700;DHT22;10511;51.232;9.420;2024-03-22T00:04:26;8.10;99.90
20700;DHT22;10511;51.232;9.420;2024-03-22T00:06:51;8.00;99.90
20700;DHT22;10511;51.232;9.420;2024-03-22T00:09:18;8.00;99.90
20700;DHT22;10511;51.232;9.420;2024-03-22T00:11:44;8.10;99.90
20700;DHT22;10511;51.232;9.420;2024-03-22T00:14:12;8.00;99.90
20700;DHT22;10511;51.232;9.420;2024-03-22T00:16:39;8.10;99.90
20700;DHT22;10511;51.232;9.420;2024-03-22T00:19:06;8.10;99.90
20700;DHT22;10511;51.232;9.420;2024-03-22T00:21:32;8.10;99.90
20700;DHT22;10511;51.232;9.420;2024-03-22T00:23:59;8.10;99.90
20700;DHT22;10511;51.232;9.420;2024-03-22T00:26:26;8.00;99.90
20700;DHT22;10511;51.232;9.420;2024-03-22T00:28:53;8.10;99.90
20700;DHT22;10511;51.232;9.420;2024-03-22T00:31:19;8.10;99.90
20700;DHT22;10511;51.232;9.420;2024-03-22T00:33:47;8.00;99.90
20700;DHT22;10511;51.232;9.420;2024-03-22T00:36:13;7.90;99.90
20700;DHT22;10511;51.232;9.420;2024-03-22T00:38:40;7.90;99.90
20700;DHT22;10511;51.232;9.420;2024-03-22T00:41:06;7.80;99.90
20700;DHT22;10511;51.232;9.420;2024-03-22T00:43:33;7.70;99.90
20700;DHT22;10511;51.232;9.420;2024-03-22T00:45:59;7.60;99.90
20700;DHT22;10511;51.232;9.420;2024-03-22T00:48:26;7.60;99.90
20700;DHT22;10511;51.232;9.420;2024-03-22T00:50:54;7.60;99.90
20700;DHT22;10511;51.232;9.420;2024-03-22T00:53:21;7.70;99.90
20700;DHT22;10511;51.232;9.420;2024-03-22T00:55:46;7.80;99.90
20700;DHT22;10511;51.232;9.420;2024-03-22T00:58:17;7.80;99.90
20700;DHT22;10511;51.232;9.420;2024-03-22T01:00:43;7.70;99.90
20700;DHT22;10511;51.232;9.420;2024-03-22T01:03:11;7.90;99.90
20700;DHT22;10511;51.232;9.420;2024-03-22T01:05:37;8.00;99.90
20700;DHT22;10511;51.232;9.420;2024-03-22T01:08:06;8.00;99.90
20700;DHT22;10511;51.232;9.420;2024-03-22T01:10:33;8.00;99.90
20700;DHT22;10511;51.232;9.420;2024-03-22T01:13:00;8.00;99.90
20700;DHT22;10511;51.232;9.420;2024-03-22T01:15:26;7.90;99.90
20700;DHT22;10511;51.232;9.420;2024-03-22T01:17:53;7.90;99.90
20700;DHT22;10511;51.232;9.420;2024-03-22T01:20:19;7.90;99.90
20700;DHT22;10511;51.232;9.420;2024-03-22T01:22:46;8.00;99.90
20700;DHT22;10511;51.232;9.420;2024-03-22T01:25:13;8.00;99.90
20700;DHT22;10511;51.232;9.420;2024-03-22T01:27:40;8.10;99.90
20700;DHT22;10511;51.232;9.420;2024-03-22T01:30:07;8.20;99.90
20700;DHT22;10511;51.232;9.420;2024-03-22T01:32:37;8.30;99.90
20700;DHT22;10511;51.232;9.420;2024-03-22T01:35:09;8.20;99.90
20700;DHT22;10511;51.232;9.420;2024-03-22T01:37:35;8.10;99.90
20700;DHT22;10511;51.232;9.420;2024-03-22T01:40:02;8.20;99.90
20700;DHT22;10511;51.232;9.420;2024-03-22T01:42:31;8.20;99.90
20700;DHT22;10511;51.232;9.420;2024-03-22T01:44:57;8.20;99.90
20700;DHT22;10511;51.232;9.420;2024-03-22T01:47:24;8.20;99.90
20700;DHT22;10511;51.232;9.420;2024-03-22T01:49:52;8.20;99.90
20700;DHT22;10511;51.232;9.420;2024-03-22T01:52:20;8.20;99.90
20700;DHT22;10511;51.232;9.420;2024-03-22T01:54:46;8.10;99.90
20700;DHT22;10511;51.232;9.420;2024-03-22T01:57:13;8.00;99.90
20700;DHT22;10511;51.232;9.420;2024-03-22T01:59:40;7.90;99.90
20700;DHT22;10511;51.232;9.420;2024-03-22T02:02:07;7.60;99.90
20700;DHT22;10511;51.232;9.420;2024-03-22T02:04:34;7.50;99.90
20700;DHT22;10511;51.232;9.420;2024-03-22T02:07:00;7.30;99.90
20700;DHT22;10511;51.232;9.420;2024-03-22T02:09:26;7.10;99.90
20700;DHT22;10511;51.232;9.420;2024-03-22T02:11:53;6.90;99.90
20700;DHT22;10511;51.232;9.420;2024-03-22T02:14:19;6.80;99.90
20700;DHT22;10511;51.232;9.420;2024-03-22T02:16:47;6.80;99.90
20700;DHT22;10511;51.232;9.420;2024-03-22T02:19:13;6.80;99.90
20700;DHT22;10511;51.232;9.420;2024-03-22T02:21:40;6.80;99.90
20700;DHT22;10511;51.232;9.420;2024-03-22T02:24:07;6.70;99.90
20700;DHT22;10511;51.232;9.420;2024-03-22T02:26:34;6.90;99.90
20700;DHT22;10511;51.232;9.420;2024-03-22T02:29:00;6.90;99.90
20700;DHT22;10511;51.232;9.420;2024-03-22T02:31:27;6.90;99.90
20700;DHT22;10511;51.232;9.420;2024-03-22T02:33:53;7.00;99.90
20700;DHT22;10511;51.232;9.420;2024-03-22T02:36:20;7.00;99.90
20700;DHT22;10511;51.232;9.420;2024-03-22T02:38:45;7.10;99.90
20700;DHT22;10511;51.232;9.420;2024-03-22T02:41:14;7.00;99.90
20700;DHT22;10511;51.232;9.420;2024-03-22T02:43:40;7.10;99.90
20700;DHT22;10511;51.232;9.420;2024-03-22T02:46:06;7.10;99.90
20700;DHT22;10511;51.232;9.420;2024-03-22T02:48:32;7.00;99.90
20700;DHT22;10511;51.232;9.420;2024-03-22T02:50:59;7.00;99.90
20700;DHT22;10511;51.232;9.420;2024-03-22T02:53:25;7.00;99.90
20700;DHT22;10511;51.232;9.420;2024-03-22T02:55:52;7.00;99.90
20700;DHT22;10511;51.232;9.420;2024-03-22T02:58:20;7.10;99.90
20700;DHT22;10511;51.232;9.420;2024-03-22T03:00:48;7.10;99.90
20700;DHT22;10511;51.232;9.420;2024-03-22T03:03:13;7.20;99.90
20700;DHT22;10511;51.232;9.420;2024-03-22T03:05:41;7.20;99.90
20700;DHT22;10511;51.232;9.420;2024-03-22T03:08:07;7.20;99.90
20700;DHT22;10511;51.232;9.420;2024-03-22T03:10:35;7.30;99.90
20700;DHT22;10511;51.232;9.420;2024-03-22T03:13:01;7.30;99.90
20700;DHT22;10511;51.232;9.420;2024-03-22T03:15:29;7.30;99.90
20700;DHT22;10511;51.232;9.420;2024-03-22T03:17:55;7.30;99.90
20700;DHT22;10511;51.232;9.420;2024-03-22T03:20:22;7.40;99.90
20700;DHT22;10511;51.232;9.420;2024-03-22T03:22:47;7.40;99.90
20700;DHT22;10511;51.232;9.420;2024-03-22T03:25:14;7.40;99.90
20700;DHT22;10511;51.232;9.420;2024-03-22T03:27:40;7.40;99.90
20700;DHT22;10511;51.232;9.420;2024-03-22T03:30:08;7.30;99.90
20700;DHT22;10511;51.232;9.420;2024-03-22T03:32:35;7.30;99.90
20700;DHT22;10511;51.232;9.420;2024-03-22T03:35:02;7.20;99.90
20700;DHT22;10511;51.232;9.420;2024-03-22T03:37:28;7.30;99.90
20700;DHT22;10511;51.232;9.420;2024-03-22T03:39:55;7.30;99.90
20700;DHT22;10511;51.232;9.420;2024-03-22T03:42:20;7.40;99.90
20700;DHT22;10511;51.232;9.420;2024-03-22T03:44:47;7.40;99.90
20700;DHT22;10511;51.232;9.420;2024-03-22T03:47:13;7.40;99.90
20700;DHT22;10511;51.232;9.420;2024-03-22T03:49:41;7.30;99.90
20700;DHT22;10511;51.232;9.420;2024-03-22T03:52:07;7.30;99.90
20700;DHT22;10511;51.232;9.420;2024-03-22T03:54:35;7.20;99.90
20700;DHT22;10511;51.232;9.420;2024-03-22T03:57:00;7.20;99.90
20700;DHT22;10511;51.232;9.420;2024-03-22T03:59:27;7.20;99.90
20700;DHT22;10511;51.232;9.420;2024-03-22T04:01:53;7.30;99.90
20700;DHT22;10511;51.232;9.420;2024-03-22T04:04:20;7.40;99.90
20700;DHT22;10511;51.232;9.420;2024-03-22T04:06:47;7.40;99.90
20700;DHT22;10511;51.232;9.420;2024-03-22T04:09:14;7.40;99.90
20700;DHT22;10511;51.232;9.420;2024-03-22T04:11:40;7.40;99.90
20700;DHT22;10511;51.232;9.420;2024-03-22T04:14:07;7.50;99.90
20700;DHT22;10511;51.232;9.420;2024-03-22T04:16:33;7.40;99.90
20700;DHT22;10511;51.232;9.420;2024-03-22T04:19:00;7.50;99.90
20700;DHT22;10511;51.232;9.420;2024-03-22T04:21:26;7.50;99.90
20700;DHT22;10511;51.232;9.420;2024-03-22T04:23:54;7.50;99.90
20700;DHT22;10511;51.232;9.420;2024-03-22T04:26:20;7.50;99.90
20700;DHT22;10511;51.232;9.420;2024-03-22T04:28:48;7.50;99.90
20700;DHT22;10511;51.232;9.420;2024-03-22T04:31:14;7.50;99.90
20700;DHT22;10511;51.232;9.420;2024-03-22T04:33:42;7.60;99.90
20700;DHT22;10511;51.232;9.420;2024-03-22T04:36:07;7.60;99.90
20700;DHT22;10511;51.232;9.420;2024-03-22T04:38:36;7.60;99.90
20700;DHT22;10511;51.232;9.420;2024-03-22T04:41:04;7.60;99.90
20700;DHT22;10511;51.232;9.420;2024-03-22T04:43:31;7.60;99.90
20700;DHT22;10511;51.232;9.420;2024-03-22T04:45:58;7.70;99.90
20700;DHT22;10511;51.232;9.420;2024-03-22T04:48:24;7.70;99.90
20700;DHT22;10511;51.232;9.420;2024-03-22T04:50:52;7.60;99.90
20700;DHT22;10511;51.232;9.420;2024-03-22T04:53:19;7.60;99.90
20700;DHT22;10511;51.232;9.420;2024-03-22T04:55:46;7.60;99.90
20700;DHT22;10511;51.232;9.420;2024-03-22T04:58:15;7.60;99.90
20700;DHT22;10511;51.232;9.420;2024-03-22T05:00:42;7.60;99.90
20700;DHT22;10511;51.232;9.420;2024-03-22T05:03:09;7.60;99.90
20700;DHT22;10511;51.232;9.420;2024-03-22T05:05:36;7.70;99.90
20700;DHT22;10511;51.232;9.420;2024-03-22T05:08:02;7.70;99.90
20700;DHT22;10511;51.232;9.420;2024-03-22T05:10:29;7.70;99.90
20700;DHT22;10511;51.232;9.420;2024-03-22T05:12:55;7.70;99.90
20700;DHT22;10511;51.232;9.420;2024-03-22T05:15:24;7.80;99.90
20700;DHT22;10511;51.232;9.420;2024-03-22T05:17:51;7.80;99.90
20700;DHT22;10511;51.232;9.420;2024-03-22T05:20:18;7.80;99.90
20700;DHT22;10511;51.232;9.420;2024-03-22T05:22:43;7.80;99.90
20700;DHT22;10511;51.232;9.420;2024-03-22T05:25:10;7.90;99.90
20700;DHT22;10511;51.232;9.420;2024-03-22T05:27:38;7.80;99.90
20700;DHT22;10511;51.232;9.420;2024-03-22T05:30:05;7.80;99.90
20700;DHT22;10511;51.232;9.420;2024-03-22T05:32:33;7.80;99.90
20700;DHT22;10511;51.232;9.420;2024-03-22T05:34:59;7.80;99.90
20700;DHT22;10511;51.232;9.420;2024-03-22T05:37:25;7.80;99.90
20700;DHT22;10511;51.232;9.420;2024-03-22T05:39:52;7.80;99.90
20700;DHT22;10511;51.232;9.420;2024-03-22T05:42:18;7.80;99.90
20700;DHT22;10511;51.232;9.420;2024-03-22T05:44:45;7.80;99.90
20700;DHT22;10511;51.232;9.420;2024-03-22T05:47:11;7.90;99.90
20700;DHT22;10511;51.232;9.420;2024-03-22T05:49:39;7.90;99.90
20700;DHT22;10511;51.232;9.420;2024-03-22T05:52:05;7.90;99.90
20700;DHT22;10511;51.232;9.420;2024-03-22T05:54:32;8.00;99.90
20700;DHT22;10511;51.232;9.420;2024-03-22T05:56:58;8.00;99.90
20700;DHT22;10511;51.232;9.420;2024-03-22T05:59:26;8.00;99.90
20700;DHT22;10511;51.232;9.420;2024-03-22T06:01:53;8.00;99.90
20700;DHT22;10511;51.232;9.420;2024-03-22T06:04:20;8.00;99.90
20700;DHT22;10511;51.232;9.420;2024-03-22T06:06:47;8.00;99.90
20700;DHT22;10511;51.232;9.420;2024-03-22T06:09:14;8.10;99.90
20700;DHT22;10511;51.232;9.420;2024-03-22T06:11:44;8.10;99.90
20700;DHT22;10511;51.232;9.420;2024-03-22T06:14:11;8.10;99.90
20700;DHT22;10511;51.232;9.420;2024-03-22T06:16:37;8.10;99.90
20700;DHT22;10511;51.232;9.420;2024-03-22T06:19:04;8.20;99.90
20700;DHT22;10511;51.232;9.420;2024-03-22T06:21:30;8.20;99.90
20700;DHT22;10511;51.232;9.420;2024-03-22T06:23:58;8.30;99.90
20700;DHT22;10511;51.232;9.420;2024-03-22T06:26:24;8.30;99.90
20700;DHT22;10511;51.232;9.420;2024-03-22T06:28:50;8.30;99.90
20700;DHT22;10511;51.232;9.420;2024-03-22T06:31:16;8.30;99.90
20700;DHT22;10511;51.232;9.420;2024-03-22T06:33:43;8.30;99.90
20700;DHT22;10511;51.232;9.420;2024-03-22T06:36:09;8.30;99.90
20700;DHT22;10511;51.232;9.420;2024-03-22T06:38:36;8.30;99.90
20700;DHT22;10511;51.232;9.420;2024-03-22T06:41:03;8.30;99.90
20700;DHT22;10511;51.232;9.420;2024-03-22T06:43:30;8.30;99.90
20700;DHT22;10511;51.232;9.420;2024-03-22T06:45:56;8.40;99.90
20700;DHT22;10511;51.232;9.420;2024-03-22T06:48:23;8.40;99.90
20700;DHT22;10511;51.232;9.420;2024-03-22T06:50:49;8.40;99.90
20700;DHT22;10511;51.232;9.420;2024-03-22T06:53:15;8.40;99.90
20700;DHT22;10511;51.232;9.420;2024-03-22T06:55:41;8.40;99.90
20700;DHT22;10511;51.232;9.420;2024-03-22T06:58:09;8.30;99.90
20700;DHT22;10511;51.232;9.420;2024-03-22T07:00:35;8.40;99.90
20700;DHT22;10511;51.232;9.420;2024-03-22T07:03:03;8.50;99.90
20700;DHT22;10511;51.232;9.420;2024-03-22T07:05:29;8.50;99.90
20700;DHT22;10511;51.232;9.420;2024-03-22T07:07:56;8.50;99.90
20700;DHT22;10511;51.232;9.420;2024-03-22T07:10:23;8.50;99.90
20700;DHT22;10511;51.232;9.420;2024-03-22T07:12:53;8.60;99.90
20700;DHT22;10511;51.232;9.420;2024-03-22T07:15:21;8.60;99.90
20700;DHT22;10511;51.232;9.420;2024-03-22T07:17:48;8.60;99.90
20700;DHT22;10511;51.232;9.420;2024-03-22T07:20:13;8.70;99.90
20700;DHT22;10511;51.232;9.420;2024-03-22T07:22:40;8.70;99.90
20700;DHT22;10511;51.232;9.420;2024-03-22T07:25:07;8.70;99.90
20700;DHT22;10511;51.232;9.420;2024-03-22T07:27:35;8.70;99.90
20700;DHT22;10511;51.232;9.420;2024-03-22T07:30:01;8.80;99.90
20700;DHT22;10511;51.232;9.420;2024-03-22T07:32:29;8.90;99.90
20700;DHT22;10511;51.232;9.420;2024-03-22T07:34:55;8.80;99.90
20700;DHT22;10511;51.232;9.420;2024-03-22T07:37:22;8.90;99.90
20700;DHT22;10511;51.232;9.420;2024-03-22T07:39:48;8.90;99.90
20700;DHT22;10511;51.232;9.420;2024-03-22T07:42:15;8.90;99.90
20700;DHT22;10511;51.232;9.420;2024-03-22T07:44:41;8.90;99.90
20700;DHT22;10511;51.232;9.420;2024-03-22T07:47:08;8.90;99.90
20700;DHT22;10511;51.232;9.420;2024-03-22T07:49:35;9.00;99.90
20700;DHT22;10511;51.232;9.420;2024-03-22T07:52:02;9.00;99.90
20700;DHT22;10511;51.232;9.420;2024-03-22T07:54:28;9.00;99.90
20700;DHT22;10511;51.232;9.420;2024-03-22T07:56:55;9.10;99.90
20700;DHT22;10511;51.232;9.420;2024-03-22T07:59:21;9.10;99.90
20700;DHT22;10511;51.232;9.420;2024-03-22T08:01:47;9.10;99.90
20700;DHT22;10511;51.232;9.420;2024-03-22T08:04:13;9.20;99.90
20700;DHT22;10511;51.232;9.420;2024-03-22T08:06:42;9.30;99.90
20700;DHT22;10511;51.232;9.420;2024-03-22T08:09:07;9.30;99.90
20700;DHT22;10511;51.232;9.420;2024-03-22T08:11:34;9.30;99.90
20700;DHT22;10511;51.232;9.420;2024-03-22T08:14:00;9.40;99.90
20700;DHT22;10511;51.232;9.420;2024-03-22T08:16:29;9.50;99.90
20700;DHT22;10511;51.232;9.420;2024-03-22T08:18:55;9.40;99.90
20700;DHT22;10511;51.232;9.420;2024-03-22T08:21:22;9.50;99.90
20700;DHT22;10511;51.232;9.420;2024-03-22T08:23:50;9.60;99.90
20700;DHT22;10511;51.232;9.420;2024-03-22T08:26:17;9.70;99.90
20700;DHT22;10511;51.232;9.420;2024-03-22T08:28:42;9.70;99.90
20700;DHT22;10511;51.232;9.420;2024-03-22T08:31:09;9.90;99.90
20700;DHT22;10511;51.232;9.420;2024-03-22T08:33:35;9.90;99.90
20700;DHT22;10511;51.232;9.420;2024-03-22T08:36:02;10.00;99.90
20700;DHT22;10511;51.232;9.420;2024-03-22T08:38:28;10.00;99.90
20700;DHT22;10511;51.232;9.420;2024-03-22T08:40:56;10.10;99.90
20700;DHT22;10511;51.232;9.420;2024-03-22T08:43:22;10.10;99.90
20700;DHT22;10511;51.232;9.420;2024-03-22T08:45:51;10.20;99.90
20700;DHT22;10511;51.232;9.420;2024-03-22T08:48:17;10.30;99.90
20700;DHT22;10511;51.232;9.420;2024-03-22T08:50:44;10.40;99.90
20700;DHT22;10511;51.232;9.420;2024-03-22T08:53:10;10.50;99.90
20700;DHT22;10511;51.232;9.420;2024-03-22T08:55:37;10.60;99.90
20700;DHT22;10511;51.232;9.420;2024-03-22T08:58:04;10.50;99.90
20700;DHT22;10511;51.232;9.420;2024-03-22T09:00:31;10.50;99.90
20700;DHT22;10511;51.232;9.420;2024-03-22T09:02:57;10.50;99.90
20700;DHT22;10511;51.232;9.420;2024-03-22T09:05:24;10.50;99.90
20700;DHT22;10511;51.232;9.420;2024-03-22T09:07:49;10.60;99.90
20700;DHT22;10511;51.232;9.420;2024-03-22T09:10:18;10.70;99.90
20700;DHT22;10511;51.232;9.420;2024-03-22T09:12:44;10.70;99.90
20700;DHT22;10511;51.232;9.420;2024-03-22T09:15:12;10.80;99.90
20700;DHT22;10511;51.232;9.420;2024-03-22T09:17:38;10.70;99.90
20700;DHT22;10511;51.232;9.420;2024-03-22T09:20:06;10.80;99.90
20700;DHT22;10511;51.232;9.420;2024-03-22T09:22:33;10.90;99.90
20700;DHT22;10511;51.232;9.420;2024-03-22T09:25:00;11.00;99.90
20700;DHT22;10511;51.232;9.420;2024-03-22T09:27:26;11.00;99.90
20700;DHT22;10511;51.232;9.420;2024-03-22T09:29:52;11.00;99.90
20700;DHT22;10511;51.232;9.420;2024-03-22T09:32:20;11.00;99.90
20700;DHT22;10511;51.232;9.420;2024-03-22T09:34:48;11.00;99.90
20700;DHT22;10511;51.232;9.420;2024-03-22T09:37:14;11.10;99.90
20700;DHT22;10511;51.232;9.420;2024-03-22T09:39:41;11.10;99.90
20700;DHT22;10511;51.232;9.420;2024-03-22T09:42:08;11.10;99.90
20700;DHT22;10511;51.232;9.420;2024-03-22T09:44:38;11.20;99.90
20700;DHT22;10511;51.232;9.420;2024-03-22T09:47:06;11.30;99.90
20700;DHT22;10511;51.232;9.420;2024-03-22T09:49:36;11.30;99.90
20700;DHT22;10511;51.232;9.420;2024-03-22T09:52:02;11.30;99.90
20700;DHT22;10511;51.232;9.420;2024-03-22T09:54:30;11.30;99.90
20700;DHT22;10511;51.232;9.420;2024-03-22T09:56:56;11.30;99.90
20700;DHT22;10511;51.232;9.420;2024-03-22T09:59:23;11.30;99.90
20700;DHT22;10511;51.232;9.420;2024-03-22T10:01:50;11.30;99.90
20700;DHT22;10511;51.232;9.420;2024-03-22T10:04:17;11.40;99.90
20700;DHT22;10511;51.232;9.420;2024-03-22T10:06:47;11.50;99.90
20700;DHT22;10511;51.232;9.420;2024-03-22T10:09:14;11.50;99.90
20700;DHT22;10511;51.232;9.420;2024-03-22T10:11:41;11.50;99.90
20700;DHT22;10511;51.232;9.420;2024-03-22T10:14:08;11.60;99.90
20700;DHT22;10511;51.232;9.420;2024-03-22T10:16:34;11.70;99.90
20700;DHT22;10511;51.232;9.420;2024-03-22T10:19:01;11.80;99.90
20700;DHT22;10511;51.232;9.420;2024-03-22T10:21:27;11.90;99.90
20700;DHT22;10511;51.232;9.420;2024-03-22T10:23:56;12.00;99.90
20700;DHT22;10511;51.232;9.420;2024-03-22T10:26:22;12.10;99.90
20700;DHT22;10511;51.232;9.420;2024-03-22T10:28:48;12.10;99.90
20700;DHT22;10511;51.232;9.420;2024-03-22T10:31:14;12.20;99.90
20700;DHT22;10511;51.232;9.420;2024-03-22T10:33:41;12.20;99.90
20700;DHT22;10511;51.232;9.420;2024-03-22T10:36:10;12.20;99.90
20700;DHT22;10511;51.232;9.420;2024-03-22T10:38:38;12.20;99.90
20700;DHT22;10511;51.232;9.420;2024-03-22T10:41:06;12.30;99.90
20700;DHT22;10511;51.232;9.420;2024-03-22T10:43:33;12.40;99.90
20700;DHT22;10511;51.232;9.420;2024-03-22T10:46:01;12.50;99.90
20700;DHT22;10511;51.232;9.420;2024-03-22T10:48:30;12.50;99.90
20700;DHT22;10511;51.232;9.420;2024-03-22T10:50:59;12.60;99.90
20700;DHT22;10511;51.232;9.420;2024-03-22T10:53:27;12.80;99.90
20700;DHT22;10511;51.232;9.420;2024-03-22T10:55:54;13.00;99.90
20700;DHT22;10511;51.232;9.420;2024-03-22T10:58:24;13.10;99.90
20700;DHT22;10511;51.232;9.420;2024-03-22T11:00:52;13.20;99.90
20700;DHT22;10511;51.232;9.420;2024-03-22T11:03:19;13.20;99.90
20700;DHT22;10511;51.232;9.420;2024-03-22T11:05:46;13.30;99.90
20700;DHT22;10511;51.232;9.420;2024-03-22T11:08:13;13.30;99.90
20700;DHT22;10511;51.232;9.420;2024-03-22T11:10:39;13.40;99.90
20700;DHT22;10511;51.232;9.420;2024-03-22T11:13:07;13.40;99.90
20700;DHT22;10511;51.232;9.420;2024-03-22T11:15:35;13.40;99.90
20700;DHT22;10511;51.232;9.420;2024-03-22T11:18:02;13.50;99.90
20700;DHT22;10511;51.232;9.420;2024-03-22T11:20:28;13.50;99.90
20700;DHT22;10511;51.232;9.420;2024-03-22T11:22:56;13.50;99.90
20700;DHT22;10511;51.232;9.420;2024-03-22T11:25:22;13.60;99.90
20700;DHT22;10511;51.232;9.420;2024-03-22T11:27:49;13.70;99.90
20700;DHT22;10511;51.232;9.420;2024-03-22T11:30:15;13.70;99.90
20700;DHT22;10511;51.232;9.420;2024-03-22T11:32:43;13.70;99.90
20700;DHT22;10511;51.232;9.420;2024-03-22T11:35:11;13.70;99.90
20700;DHT22;10511;51.232;9.420;2024-03-22T11:37:38;13.80;99.90
20700;DHT22;10511;51.232;9.420;2024-03-22T11:40:05;13.90;99.90
20700;DHT22;10511;51.232;9.420;2024-03-22T11:42:34;14.00;99.90
20700;DHT22;10511;51.232;9.420;2024-03-22T11:45:01;14.00;99.90
20700;DHT22;10511;51.232;9.420;2024-03-22T11:47:28;13.90;99.90
20700;DHT22;10511;51.232;9.420;2024-03-22T11:49:55;14.00;99.90
20700;DHT22;10511;51.232;9.420;2024-03-22T11:52:24;14.00;99.90
20700;DHT22;10511;51.232;9.420;2024-03-22T11:54:51;14.10;99.90
20700;DHT22;10511;51.232;9.420;2024-03-22T11:57:20;14.10;99.90
20700;DHT22;10511;51.232;9.420;2024-03-22T11:59:46;14.10;99.90
20700;DHT22;10511;51.232;9.420;2024-03-22T12:02:13;14.10;99.90
20700;DHT22;10511;51.232;9.420;2024-03-22T12:04:41;14.20;99.90
20700;DHT22;10511;51.232;9.420;2024-03-22T12:07:11;14.20;99.90
20700;DHT22;10511;51.232;9.420;2024-03-22T12:09:37;14.10;99.90
20700;DHT22;10511;51.232;9.420;2024-03-22T12:12:06;14.10;99.90
20700;DHT22;10511;51.232;9.420;2024-03-22T12:14:34;14.10;99.90
20700;DHT22;10511;51.232;9.420;2024-03-22T12:17:00;14.10;99.90
20700;DHT22;10511;51.232;9.420;2024-03-22T12:19:27;14.10;99.90
20700;DHT22;10511;51.232;9.420;2024-03-22T12:21:53;14.10;99.90
20700;DHT22;10511;51.232;9.420;2024-03-22T12:24:21;14.10;99.90
20700;DHT22;10511;51.232;9.420;2024-03-22T12:26:47;14.20;99.90
20700;DHT22;10511;51.232;9.420;2024-03-22T12:29:15;14.20;99.90
20700;DHT22;10511;51.232;9.420;2024-03-22T12:31:41;14.30;99.90
20700;DHT22;10511;51.232;9.420;2024-03-22T12:34:08;14.40;99.90
20700;DHT22;10511;51.232;9.420;2024-03-22T12:36:34;14.40;99.90
20700;DHT22;10511;51.232;9.420;2024-03-22T12:39:01;14.30;99.90
20700;DHT22;10511;51.232;9.420;2024-03-22T12:41:29;14.30;99.90
20700;DHT22;10511;51.232;9.420;2024-03-22T12:43:56;14.30;99.90
20700;DHT22;10511;51.232;9.420;2024-03-22T12:46:22;14.30;99.90
20700;DHT22;10511;51.232;9.420;2024-03-22T12:48:49;14.30;99.90
20700;DHT22;10511;51.232;9.420;2024-03-22T12:51:15;14.40;99.90
20700;DHT22;10511;51.232;9.420;2024-03-22T12:53:42;14.30;99.90
20700;DHT22;10511;51.232;9.420;2024-03-22T12:56:08;14.30;99.90
20700;DHT22;10511;51.232;9.420;2024-03-22T12:58:38;14.30;99.90
20700;DHT22;10511;51.232;9.420;2024-03-22T13:01:04;14.30;99.90
20700;DHT22;10511;51.232;9.420;2024-03-22T13:03:32;14.40;99.90
20700;DHT22;10511;51.232;9.420;2024-03-22T13:05:58;14.50;99.90
20700;DHT22;10511;51.232;9.420;2024-03-22T13:08:25;14.60;99.90
20700;DHT22;10511;51.232;9.420;2024-03-22T13:10:51;14.60;99.90
20700;DHT22;10511;51.232;9.420;2024-03-22T13:13:18;14.70;99.90
20700;DHT22;10511;51.232;9.420;2024-03-22T13:15:45;14.80;99.90
20700;DHT22;10511;51.232;9.420;2024-03-22T13:18:12;14.90;99.90
20700;DHT22;10511;51.232;9.420;2024-03-22T13:20:38;14.90;99.90
20700;DHT22;10511;51.232;9.420;2024-03-22T13:23:05;14.90;99.90
20700;DHT22;10511;51.232;9.420;2024-03-22T13:25:31;14.90;99.90
20700;DHT22;10511;51.232;9.420;2024-03-22T13:27:58;14.90;99.90
20700;DHT22;10511;51.232;9.420;2024-03-22T13:30:24;14.90;99.90
20700;DHT22;10511;51.232;9.420;2024-03-22T13:32:54;14.90;99.90
20700;DHT22;10511;51.232;9.420;2024-03-22T13:35:19;14.90;99.90
20700;DHT22;10511;51.232;9.420;2024-03-22T13:37:46;14.90;99.90
20700;DHT22;10511;51.232;9.420;2024-03-22T13:40:12;14.90;99.90
20700;DHT22;10511;51.232;9.420;2024-03-22T13:42:41;14.90;99.90
20700;DHT22;10511;51.232;9.420;2024-03-22T13:45:07;14.90;99.90
20700;DHT22;10511;51.232;9.420;2024-03-22T13:47:34;14.90;99.90
20700;DHT22;10511;51.232;9.420;2024-03-22T13:50:05;14.90;99.90
20700;DHT22;10511;51.232;9.420;2024-03-22T13:52:32;14.90;99.90
20700;DHT22;10511;51.232;9.420;2024-03-22T13:54:58;14.90;99.90
20700;DHT22;10511;51.232;9.420;2024-03-22T13:57:26;14.80;99.90
20700;DHT22;10511;51.232;9.420;2024-03-22T13:59:52;14.80;99.90
20700;DHT22;10511;51.232;9.420;2024-03-22T14:02:19;14.70;99.90
20700;DHT22;10511;51.232;9.420;2024-03-22T14:04:45;14.70;99.90
20700;DHT22;10511;51.232;9.420;2024-03-22T14:07:13;14.70;99.90
20700;DHT22;10511;51.232;9.420;2024-03-22T14:09:40;14.60;99.90
20700;DHT22;10511;51.232;9.420;2024-03-22T14:12:08;14.60;99.90
20700;DHT22;10511;51.232;9.420;2024-03-22T14:14:34;14.60;99.90
20700;DHT22;10511;51.232;9.420;2024-03-22T14:17:01;14.60;99.90
20700;DHT22;10511;51.232;9.420;2024-03-22T14:19:27;14.60;99.90
20700;DHT22;10511;51.232;9.420;2024-03-22T14:21:55;14.60;99.90
20700;DHT22;10511;51.232;9.420;2024-03-22T14:24:22;14.60;99.90
20700;DHT22;10511;51.232;9.420;2024-03-22T14:26:49;14.60;99.90
20700;DHT22;10511;51.232;9.420;2024-03-22T14:29:15;14.70;99.90
20700;DHT22;10511;51.232;9.420;2024-03-22T14:31:42;14.70;99.90
20700;DHT22;10511;51.232;9.420;2024-03-22T14:34:09;14.80;99.90
20700;DHT22;10511;51.232;9.420;2024-03-22T14:36:36;14.80;99.90
20700;DHT22;10511;51.232;9.420;2024-03-22T14:39:02;14.80;99.90
20700;DHT22;10511;51.232;9.420;2024-03-22T14:41:32;14.80;99.90
20700;DHT22;10511;51.232;9.420;2024-03-22T14:43:57;14.90;99.90
20700;DHT22;10511;51.232;9.420;2024-03-22T14:46:24;14.90;99.90
20700;DHT22;10511;51.232;9.420;2024-03-22T14:48:54;14.90;99.90
20700;DHT22;10511;51.232;9.420;2024-03-22T14:51:20;14.90;99.90
20700;DHT22;10511;51.232;9.420;2024-03-22T14:53:47;14.90;99.90
20700;DHT22;10511;51.232;9.420;2024-03-22T14:56:14;14.80;99.90
20700;DHT22;10511;51.232;9.420;2024-03-22T14:58:42;14.90;99.90
20700;DHT22;10511;51.232;9.420;2024-03-22T15:01:08;14.90;99.90
20700;DHT22;10511;51.232;9.420;2024-03-22T15:03:36;14.90;99.90
20700;DHT22;10511;51.232;9.420;2024-03-22T15:06:02;14.90;99.90
20700;DHT22;10511;51.232;9.420;2024-03-22T15:08:29;14.90;99.90
20700;DHT22;10511;51.232;9.420;2024-03-22T15:10:55;14.90;99.90
20700;DHT22;10511;51.232;9.420;2024-03-22T15:13:22;14.80;99.90
20700;DHT22;10511;51.232;9.420;2024-03-22T15:15:54;14.80;99.90
20700;DHT22;10511;51.232;9.420;2024-03-22T15:18:20;14.70;99.90
20700;DHT22;10511;51.232;9.420;2024-03-22T15:20:50;14.70;99.90
20700;DHT22;10511;51.232;9.420;2024-03-22T15:23:19;14.70;99.90
20700;DHT22;10511;51.232;9.420;2024-03-22T15:25:47;14.70;99.90
20700;DHT22;10511;51.232;9.420;2024-03-22T15:28:13;14.60;99.90
20700;DHT22;10511;51.232;9.420;2024-03-22T15:30:41;14.60;99.90
20700;DHT22;10511;51.232;9.420;2024-03-22T15:33:09;14.60;99.90
20700;DHT22;10511;51.232;9.420;2024-03-22T15:35:36;14.60;99.90
20700;DHT22;10511;51.232;9.420;2024-03-22T15:38:02;14.60;99.90